Time;durP1;ratioP1;P1;durP2;ratioP2;P2;SDS_P1;SDS_P2;PMS_P1;PMS_P2;Temp;Humidity;BMP_temperature;BMP_pressure;BME280_temperature;BME280_humidity;BME280_pressure;Samples;Min_cycle;Max_cycle;Signal;HPM_P1;HPM_P2
2022/09/16 00:01:27;;;;;;;1.60;1.13;;;15.90;99.90;;;;;;6096120;23;20440;-76
2022/09/16 00:03:57;;;;;;;1.67;1.10;;;15.80;99.90;;;;;;6084901;23;20435;-78
2022/09/16 00:06:28;;;;;;;4.60;1.53;;;15.80;99.90;;;;;;6097147;23;20431;-76
2022/09/16 00:08:56;;;;;;;6.57;1.57;;;15.80;99.90;;;;;;6097207;23;20432;-77
2022/09/16 00:11:23;;;;;;;1.90;1.50;;;15.80;99.90;;;;;;6084399;23;20490;-76
2022/09/16 00:13:51;;;;;;;2.80;1.20;;;15.80;99.90;;;;;;6096930;23;20443;-78
2022/09/16 00:16:23;;;;;;;2.70;1.53;;;15.70;99.90;;;;;;6096734;23;20439;-77
2022/09/16 00:18:55;;;;;;;1.30;1.20;;;15.70;99.90;;;;;;6096321;23;20463;-77
2022/09/16 00:21:22;;;;;;;2.07;1.37;;;15.70;99.90;;;;;;6095658;23;20467;-77
2022/09/16 00:23:49;;;;;;;1.87;1.40;;;15.70;99.90;;;;;;6096584;23;20491;-77
2022/09/16 00:26:16;;;;;;;2.33;1.13;;;15.70;99.90;;;;;;6096640;23;20946;-78
2022/09/16 00:28:44;;;;;;;1.60;1.37;;;15.70;99.90;;;;;;6096673;23;20439;-78
2022/09/16 00:31:11;;;;;;;3.50;1.67;;;15.60;99.90;;;;;;6096348;23;20969;-76
2022/09/16 00:33:39;;;;;;;3.53;1.50;;;15.60;99.90;;;;;;6097128;23;20914;-77
2022/09/16 00:36:09;;;;;;;1.50;1.40;;;15.60;99.90;;;;;;6096387;23;20510;-76
2022/09/16 00:38:36;;;;;;;2.13;1.70;;;15.60;99.90;;;;;;6097000;23;20439;-78
2022/09/16 00:41:04;;;;;;;1.90;1.80;;;15.60;99.90;;;;;;6097421;23;20460;-78
2022/09/16 00:43:49;;;;;;;3.33;1.53;;;15.60;99.90;;;;;;6084426;23;20724;-78
2022/09/16 00:46:20;;;;;;;1.83;1.20;;;15.50;99.90;;;;;;6095865;23;20436;-77
2022/09/16 00:48:50;;;;;;;2.80;1.73;;;15.50;99.90;;;;;;6097066;23;20523;-77
2022/09/16 00:51:19;;;;;;;1.77;1.63;;;15.50;99.90;;;;;;6096068;23;20427;-75
2022/09/16 00:53:55;;;;;;;2.70;1.93;;;15.50;99.90;;;;;;6097063;23;20495;-77
2022/09/16 00:56:26;;;;;;;1.50;1.40;;;15.40;99.90;;;;;;6081055;23;20450;-77
2022/09/16 00:59:02;;;;;;;1.67;1.57;;;15.40;99.90;;;;;;6096591;23;20720;-77
2022/09/16 01:01:29;;;;;;;2.00;1.90;;;15.40;99.90;;;;;;6095402;23;20502;-77
2022/09/16 01:04:06;;;;;;;3.03;1.80;;;15.40;99.90;;;;;;6082377;23;20443;-78
2022/09/16 01:06:40;;;;;;;4.50;1.70;;;15.40;99.90;;;;;;6094975;23;20439;-78
2022/09/16 01:09:07;;;;;;;3.43;2.27;;;15.40;99.90;;;;;;6097225;23;20442;-78
2022/09/16 01:11:40;;;;;;;1.90;1.70;;;15.40;99.90;;;;;;6095008;23;20922;-78
2022/09/16 01:17:04;;;;;;;9.37;2.07;;;15.40;99.90;;;;;;6097344;23;20445;-78
2022/09/16 01:19:56;;;;;;;2.47;1.43;;;15.30;99.90;;;;;;6096377;23;20505;-76
2022/09/16 01:22:43;;;;;;;2.33;1.60;;;15.30;99.90;;;;;;6096114;23;20467;-76
2022/09/16 01:25:28;;;;;;;3.43;1.20;;;15.30;99.90;;;;;;6095534;23;20796;-78
2022/09/16 01:28:28;;;;;;;1.40;1.30;;;15.20;99.90;;;;;;6097278;23;20443;-80
2022/09/16 01:31:07;;;;;;;2.63;1.63;;;15.20;99.90;;;;;;6093443;23;20435;-79
2022/09/16 01:33:47;;;;;;;3.03;1.57;;;15.20;99.90;;;;;;6098746;23;20447;-79
2022/09/16 01:36:34;;;;;;;3.37;1.67;;;15.20;99.90;;;;;;6084144;23;20845;-78
2022/09/16 01:39:13;;;;;;;1.80;1.70;;;15.20;99.90;;;;;;6096395;23;20498;-78
2022/09/16 01:41:49;;;;;;;3.00;1.70;;;15.10;99.90;;;;;;6098426;23;20443;-77
2022/09/16 01:44:25;;;;;;;4.50;1.43;;;15.20;99.90;;;;;;6098323;23;20441;-76
2022/09/16 01:47:03;;;;;;;3.30;1.60;;;15.10;99.90;;;;;;6098667;23;20441;-77
2022/09/16 01:49:42;;;;;;;3.83;1.60;;;15.10;99.90;;;;;;6099386;23;20463;-76
2022/09/16 01:52:19;;;;;;;2.27;1.60;;;15.00;99.90;;;;;;6099043;23;20463;-77
2022/09/16 01:54:52;;;;;;;3.13;1.60;;;15.10;99.90;;;;;;6098506;23;20776;-77
2022/09/16 01:57:26;;;;;;;3.87;1.70;;;15.00;99.90;;;;;;6098900;23;20431;-78
2022/09/16 01:59:58;;;;;;;4.45;1.48;;;15.00;99.90;;;;;;6096574;23;20419;-78
2022/09/16 02:02:33;;;;;;;1.40;1.27;;;15.00;99.90;;;;;;6098314;23;20219;-77
2022/09/16 02:05:04;;;;;;;1.83;1.50;;;15.00;99.90;;;;;;6097512;23;20427;-78
2022/09/16 02:07:33;;;;;;;2.53;1.60;;;15.00;99.90;;;;;;6098580;23;20953;-78
2022/09/16 02:10:07;;;;;;;3.03;1.50;;;15.00;99.90;;;;;;6096684;23;20439;-77
2022/09/16 02:12:43;;;;;;;1.63;1.53;;;15.00;99.90;;;;;;6098151;23;20502;-78
2022/09/16 02:15:17;;;;;;;4.20;2.13;;;14.90;99.90;;;;;;6097967;23;20438;-77
2022/09/16 02:17:51;;;;;;;3.00;1.97;;;14.90;99.90;;;;;;6098250;23;20501;-77
2022/09/16 02:20:23;;;;;;;2.08;1.58;;;14.90;99.90;;;;;;6098261;23;20489;-76
2022/09/16 02:22:57;;;;;;;4.80;1.90;;;14.90;99.90;;;;;;6098205;23;20525;-77
2022/09/16 02:25:24;;;;;;;2.43;1.53;;;14.90;99.90;;;;;;6097709;23;20432;-77
2022/09/16 02:27:53;;;;;;;2.00;1.83;;;14.90;99.90;;;;;;6098612;23;20470;-77
2022/09/16 02:30:22;;;;;;;2.00;1.80;;;14.90;99.90;;;;;;6098096;23;20422;-77
2022/09/16 02:32:56;;;;;;;2.23;1.50;;;14.90;99.90;;;;;;6098295;23;20211;-76
2022/09/16 02:35:27;;;;;;;1.70;1.60;;;14.90;99.90;;;;;;6097465;23;20439;-76
2022/09/16 02:37:58;;;;;;;5.87;2.00;;;14.90;99.90;;;;;;6098089;23;20803;-77
2022/09/16 02:40:28;;;;;;;3.88;1.60;;;14.90;99.90;;;;;;6097858;23;20473;-77
2022/09/16 02:42:56;;;;;;;1.67;1.57;;;14.80;99.90;;;;;;6097994;23;20597;-77
2022/09/16 02:45:29;;;;;;;6.50;2.70;;;14.90;99.90;;;;;;6097536;23;20705;-78
2022/09/16 02:48:05;;;;;;;1.80;1.57;;;14.80;99.90;;;;;;6098200;23;20987;-76
2022/09/16 02:50:40;;;;;;;2.77;1.70;;;14.90;99.90;;;;;;6082615;23;20478;-77
2022/09/16 02:53:16;;;;;;;1.50;1.33;;;14.80;99.90;;;;;;6097081;23;20438;-77
2022/09/16 02:55:51;;;;;;;3.30;1.73;;;14.80;99.90;;;;;;6097369;23;20466;-76
2022/09/16 02:58:18;;;;;;;4.07;2.20;;;14.80;99.90;;;;;;6097376;23;20728;-77
2022/09/16 03:00:52;;;;;;;2.20;1.63;;;14.80;99.90;;;;;;6097673;23;21142;-75
2022/09/16 03:03:25;;;;;;;2.93;1.67;;;14.80;99.90;;;;;;6097604;23;20538;-76
2022/09/16 03:06:16;;;;;;;4.33;1.97;;;14.80;99.90;;;;;;6083079;23;20439;-77
2022/09/16 03:08:45;;;;;;;3.73;1.53;;;14.80;99.90;;;;;;6096240;23;20742;-78
2022/09/16 03:11:23;;;;;;;2.03;1.83;;;14.80;99.90;;;;;;6098163;23;20435;-75
2022/09/16 03:14:03;;;;;;;3.80;1.90;;;14.80;99.90;;;;;;6083070;23;20466;-76
2022/09/16 03:16:40;;;;;;;2.40;1.63;;;14.80;99.90;;;;;;6097012;23;20572;-76
2022/09/16 03:19:16;;;;;;;7.53;4.50;;;14.80;99.90;;;;;;6096527;23;20497;-75
2022/09/16 03:21:52;;;;;;;1.97;1.87;;;14.80;99.90;;;;;;6097123;23;20891;-75
2022/09/16 03:24:27;;;;;;;2.73;2.13;;;14.70;99.90;;;;;;6097380;23;20907;-75
2022/09/16 03:27:02;;;;;;;4.07;2.30;;;14.70;99.90;;;;;;6097374;23;20462;-77
2022/09/16 03:29:35;;;;;;;4.50;2.77;;;14.70;99.90;;;;;;6097426;23;20435;-76
2022/09/16 03:32:11;;;;;;;2.60;1.90;;;14.70;99.90;;;;;;6097845;23;20498;-77
2022/09/16 03:34:44;;;;;;;3.43;2.07;;;14.70;99.90;;;;;;6095541;23;20445;-77
2022/09/16 03:37:15;;;;;;;6.10;2.53;;;14.60;99.90;;;;;;6097753;23;21003;-77
2022/09/16 03:39:47;;;;;;;4.95;2.75;;;14.60;99.90;;;;;;6096847;23;20498;-75
2022/09/16 03:42:17;;;;;;;3.30;2.57;;;14.60;99.90;;;;;;6097278;23;20208;-76
2022/09/16 03:44:44;;;;;;;2.03;1.80;;;14.60;99.90;;;;;;6096415;23;20438;-78
2022/09/16 03:47:11;;;;;;;5.50;3.70;;;14.60;99.90;;;;;;6097421;23;20230;-76
2022/09/16 03:49:40;;;;;;;7.50;2.67;;;14.60;99.90;;;;;;6097233;23;20773;-77
2022/09/16 03:52:07;;;;;;;4.23;2.50;;;14.60;99.90;;;;;;6097421;23;20439;-76
2022/09/16 03:54:34;;;;;;;2.50;2.07;;;14.60;99.90;;;;;;6082363;23;20457;-76
2022/09/16 03:57:02;;;;;;;4.60;2.67;;;14.60;99.90;;;;;;6096387;23;20459;-77
2022/09/16 03:59:29;;;;;;;4.13;2.70;;;14.60;99.90;;;;;;6096749;23;20443;-78
2022/09/16 04:01:56;;;;;;;6.03;2.33;;;14.60;99.90;;;;;;6097609;23;20440;-76
2022/09/16 04:04:23;;;;;;;1.97;1.80;;;14.60;99.90;;;;;;6096878;23;20915;-76
2022/09/16 04:06:52;;;;;;;3.83;2.63;;;14.60;99.90;;;;;;6097067;23;20424;-76
2022/09/16 04:09:19;;;;;;;2.78;2.35;;;14.50;99.90;;;;;;6097581;23;20932;-76
2022/09/16 04:11:48;;;;;;;8.57;3.10;;;14.50;99.90;;;;;;6096191;23;20215;-78
2022/09/16 04:14:15;;;;;;;4.73;3.70;;;14.50;99.90;;;;;;6097200;23;20435;-77
2022/09/16 04:16:42;;;;;;;8.90;3.13;;;14.50;99.90;;;;;;6096557;23;20477;-76
2022/09/16 04:19:11;;;;;;;3.80;2.83;;;14.50;99.90;;;;;;6097193;23;20502;-78
2022/09/16 04:21:39;;;;;;;3.07;2.60;;;14.50;99.90;;;;;;6096700;23;20807;-76
2022/09/16 04:24:10;;;;;;;5.77;2.50;;;14.50;99.90;;;;;;6085327;23;20443;-78
2022/09/16 04:26:47;;;;;;;3.55;2.90;;;14.50;99.90;;;;;;6096462;23;20914;-79
2022/09/16 04:29:16;;;;;;;6.97;2.70;;;14.50;99.90;;;;;;6097099;23;20233;-79
2022/09/16 04:31:43;;;;;;;3.00;2.30;;;14.50;99.90;;;;;;6096491;23;20439;-77
2022/09/16 04:34:11;;;;;;;4.23;2.83;;;14.50;99.90;;;;;;6082167;23;20517;-78
2022/09/16 04:36:39;;;;;;;4.47;2.70;;;14.40;99.90;;;;;;6096012;23;20929;-78
2022/09/16 04:39:08;;;;;;;3.23;2.93;;;14.40;99.90;;;;;;6097692;23;20494;-78
2022/09/16 04:41:35;;;;;;;4.00;3.07;;;14.40;99.90;;;;;;6097318;23;20526;-78
2022/09/16 04:44:02;;;;;;;4.57;3.40;;;14.40;99.90;;;;;;6096198;23;20506;-77
2022/09/16 04:46:31;;;;;;;4.47;3.57;;;14.50;99.90;;;;;;6096886;23;20502;-76
2022/09/16 04:48:59;;;;;;;4.03;3.08;;;14.50;99.90;;;;;;6095363;23;20441;-79
2022/09/16 04:51:27;;;;;;;4.25;3.33;;;14.50;99.90;;;;;;6096556;23;20211;-76
2022/09/16 04:53:55;;;;;;;5.10;3.05;;;14.50;99.90;;;;;;6096145;23;20238;-79
2022/09/16 04:56:30;;;;;;;7.72;3.10;;;14.40;99.90;;;;;;6095751;23;20632;-78
2022/09/16 04:59:00;;;;;;;3.78;3.05;;;14.40;99.90;;;;;;6095357;23;20211;-78
2022/09/16 05:01:31;;;;;;;3.30;2.97;;;14.40;99.90;;;;;;6096672;23;20211;-77
2022/09/16 05:04:05;;;;;;;2.95;2.28;;;14.50;99.90;;;;;;6096701;23;20203;-77
2022/09/16 05:06:37;;;;;;;4.03;3.47;;;14.40;99.90;;;;;;6099078;23;20258;-79
2022/09/16 05:09:04;;;;;;;3.03;2.83;;;14.50;99.90;;;;;;6098732;23;20199;-78
2022/09/16 05:11:35;;;;;;;4.72;3.15;;;14.50;99.90;;;;;;6099033;23;20230;-79
2022/09/16 05:14:04;;;;;;;5.20;2.70;;;14.50;99.90;;;;;;6098419;23;20207;-76
2022/09/16 05:16:32;;;;;;;6.05;4.68;;;14.50;99.90;;;;;;6098848;23;20435;-77
2022/09/16 05:19:03;;;;;;;3.70;3.10;;;14.50;99.90;;;;;;6086228;23;20203;-76
2022/09/16 05:21:40;;;;;;;3.50;2.40;;;14.50;99.90;;;;;;6098711;23;20215;-76
2022/09/16 05:24:09;;;;;;;4.40;3.40;;;14.40;99.90;;;;;;6098598;23;20463;-77
2022/09/16 05:26:41;;;;;;;5.07;2.55;;;14.50;99.90;;;;;;6098387;23;20439;-79
2022/09/16 05:29:11;;;;;;;4.53;2.50;;;14.40;99.90;;;;;;6098351;23;20223;-79
2022/09/16 05:31:40;;;;;;;2.43;1.70;;;14.50;99.90;;;;;;6099250;23;20525;-78
2022/09/16 05:34:13;;;;;;;8.30;2.47;;;14.50;99.90;;;;;;6097932;23;20466;-79
2022/09/16 05:36:43;;;;;;;6.50;2.50;;;14.50;99.90;;;;;;6098077;23;20966;-77
2022/09/16 05:39:14;;;;;;;4.10;1.83;;;14.50;99.90;;;;;;6084424;23;20434;-79
2022/09/16 05:41:49;;;;;;;2.63;2.20;;;14.50;99.90;;;;;;6099141;23;20813;-78
2022/09/16 05:44:16;;;;;;;5.67;2.43;;;14.50;99.90;;;;;;6097875;23;20868;-78
2022/09/16 05:46:43;;;;;;;4.47;2.17;;;14.50;99.90;;;;;;6099241;23;20937;-77
2022/09/16 05:49:19;;;;;;;4.15;2.00;;;14.50;99.90;;;;;;6097902;23;20439;-76
2022/09/16 05:51:49;;;;;;;6.90;3.28;;;14.60;99.90;;;;;;6097432;23;20207;-76
2022/09/16 05:54:18;;;;;;;5.47;2.50;;;14.60;99.90;;;;;;6083280;23;20236;-78
2022/09/16 05:56:47;;;;;;;2.47;2.28;;;14.60;99.90;;;;;;6098440;23;20208;-79
2022/09/16 05:59:24;;;;;;;;;;;;;;;;;;;;;
2022/09/16 06:01:52;;;;;;;3.90;2.80;;;14.70;99.90;;;;;;6095801;23;20286;-76
2022/09/16 06:04:22;;;;;;;2.70;2.50;;;14.70;99.90;;;;;;6097004;23;20427;-77
2022/09/16 06:06:49;;;;;;;4.77;2.53;;;14.70;99.90;;;;;;6098687;23;20199;-75
2022/09/16 06:09:24;;;;;;;3.30;2.50;;;14.70;99.90;;;;;;6098016;23;20443;-76
2022/09/16 06:11:56;;;;;;;3.33;1.67;;;14.70;99.90;;;;;;6097608;23;20443;-75
2022/09/16 06:14:23;;;;;;;4.33;2.73;;;14.70;99.90;;;;;;6097438;23;20434;-76
2022/09/16 06:16:50;;;;;;;4.10;2.77;;;14.80;99.90;;;;;;6097696;23;20506;-79
2022/09/16 06:19:21;;;;;;;4.80;2.90;;;14.80;99.90;;;;;;6085707;23;20495;-77
2022/09/16 06:21:54;;;;;;;3.57;3.20;;;14.80;99.90;;;;;;6098231;23;20443;-75
2022/09/16 06:24:22;;;;;;;5.00;3.00;;;14.90;99.90;;;;;;6096994;23;20440;-75
2022/09/16 06:26:58;;;;;;;7.17;3.40;;;14.90;99.90;;;;;;6098562;23;20439;-77
2022/09/16 06:29:28;;;;;;;2.13;1.90;;;15.00;99.90;;;;;;6081931;23;20440;-77
2022/09/16 06:32:01;;;;;;;3.80;3.27;;;15.00;99.90;;;;;;6096674;23;20462;-78
2022/09/16 06:34:28;;;;;;;8.37;3.80;;;15.00;99.90;;;;;;6097648;23;20439;-76
2022/09/16 06:37:04;;;;;;;5.13;3.70;;;15.00;99.90;;;;;;6098001;23;20435;-78
2022/09/16 06:39:34;;;;;;;5.80;2.80;;;15.10;99.90;;;;;;6098076;23;20442;-76
2022/09/16 06:42:06;;;;;;;4.00;2.20;;;15.10;99.90;;;;;;6098600;23;20514;-78
2022/09/16 06:44:33;;;;;;;8.90;3.77;;;15.10;99.90;;;;;;6097038;23;20443;-76
2022/09/16 06:47:03;;;;;;;5.90;2.90;;;15.20;99.90;;;;;;6097681;23;20498;-76
2022/09/16 06:49:33;;;;;;;3.67;2.90;;;15.10;99.90;;;;;;6082768;23;20443;-77
2022/09/16 06:52:00;;;;;;;3.47;2.50;;;15.20;99.90;;;;;;6097095;23;20443;-78
2022/09/16 06:54:30;;;;;;;4.17;1.77;;;15.20;99.90;;;;;;6097027;23;20527;-78
2022/09/16 06:57:02;;;;;;;2.60;1.87;;;15.20;99.90;;;;;;6098100;23;20446;-78
2022/09/16 06:59:29;;;;;;;3.70;2.00;;;15.30;99.90;;;;;;6095360;23;21093;-76
2022/09/16 07:01:56;;;;;;;2.80;2.20;;;15.40;99.90;;;;;;6097522;23;20939;-77
2022/09/16 07:04:23;;;;;;;3.03;1.73;;;15.40;99.90;;;;;;6096995;23;20522;-76
2022/09/16 07:07:05;;;;;;;5.37;2.37;;;15.50;99.90;;;;;;6082783;23;20446;-78
2022/09/16 07:09:38;;;;;;;3.60;1.80;;;15.50;99.90;;;;;;6080700;23;20493;-76
2022/09/16 07:12:09;;;;;;;4.10;2.40;;;15.60;99.90;;;;;;6097083;23;20451;-77
2022/09/16 07:14:40;;;;;;;2.70;2.50;;;15.70;99.90;;;;;;6096692;23;20934;-80
2022/09/16 07:17:09;;;;;;;6.03;3.20;;;15.70;99.90;;;;;;6096825;23;20443;-77
2022/09/16 07:19:44;;;;;;;3.20;2.60;;;15.70;99.90;;;;;;6084230;23;20518;-76
2022/09/16 07:22:17;;;;;;;2.30;1.90;;;15.80;99.90;;;;;;6097365;23;20752;-75
2022/09/16 07:24:44;;;;;;;4.13;2.10;;;15.80;99.90;;;;;;6083485;23;20463;-77
2022/09/16 07:27:16;;;;;;;5.43;2.30;;;15.80;99.90;;;;;;6095936;23;20515;-76
2022/09/16 07:29:47;;;;;;;2.27;1.73;;;15.80;99.90;;;;;;6096867;23;20923;-78
2022/09/16 07:32:17;;;;;;;4.47;2.17;;;15.90;99.90;;;;;;6097981;23;20818;-76
2022/09/16 07:34:44;;;;;;;3.50;2.30;;;15.90;99.90;;;;;;6097310;23;20845;-78
2022/09/16 07:37:17;;;;;;;4.97;3.37;;;15.90;99.90;;;;;;6097697;23;20435;-77
2022/09/16 07:39:44;;;;;;;5.10;3.57;;;15.90;99.90;;;;;;6097368;23;20435;-77
2022/09/16 07:42:15;;;;;;;4.57;2.57;;;15.90;99.90;;;;;;6097811;23;20439;-78
2022/09/16 07:44:43;;;;;;;5.03;2.50;;;16.00;99.90;;;;;;6096875;23;20439;-78
2022/09/16 07:47:10;;;;;;;3.77;2.30;;;16.10;99.90;;;;;;6097870;23;20435;-77
2022/09/16 07:52:28;;;;;;;3.73;2.67;;;16.10;99.90;;;;;;6096279;23;20431;-77
2022/09/16 07:54:58;;;;;;;3.33;1.90;;;16.10;99.90;;;;;;6095336;23;20427;-77
2022/09/16 07:57:25;;;;;;;2.90;1.83;;;16.20;99.90;;;;;;6097212;23;20796;-75
2022/09/16 07:59:53;;;;;;;4.07;3.00;;;16.20;99.90;;;;;;6082472;23;20950;-76
2022/09/16 08:02:30;;;;;;;2.37;2.17;;;16.30;99.90;;;;;;6096912;23;20445;-78
2022/09/16 08:05:15;;;;;;;5.70;1.97;;;16.40;99.90;;;;;;6096732;23;20438;-76
2022/09/16 08:07:53;;;;;;;2.40;1.90;;;16.50;99.90;;;;;;6081558;23;20436;-77
2022/09/16 08:10:27;;;;;;;2.03;1.60;;;16.50;99.90;;;;;;6097020;23;20446;-77
2022/09/16 08:12:54;;;;;;;2.80;1.90;;;16.60;99.90;;;;;;6096787;23;20456;-77
2022/09/16 08:15:22;;;;;;;4.90;1.40;;;16.60;99.90;;;;;;6097280;23;20440;-78
2022/09/16 08:17:49;;;;;;;1.87;1.57;;;16.70;99.90;;;;;;6096613;23;20786;-77
2022/09/16 08:20:16;;;;;;;4.50;1.97;;;16.80;99.90;;;;;;6097408;23;20441;-75
2022/09/16 08:22:43;;;;;;;4.80;2.13;;;16.80;99.90;;;;;;6081909;23;20812;-77
2022/09/16 08:25:10;;;;;;;2.00;1.90;;;16.90;99.90;;;;;;6097098;23;20713;-77
2022/09/16 08:27:38;;;;;;;3.80;1.47;;;16.90;99.90;;;;;;6097395;23;20452;-78
2022/09/16 08:30:06;;;;;;;3.93;1.60;;;16.90;99.90;;;;;;6095874;23;20423;-78
2022/09/16 08:32:34;;;;;;;5.10;1.83;;;16.90;99.90;;;;;;6097190;23;20464;-78
2022/09/16 08:35:01;;;;;;;6.97;1.87;;;16.90;99.90;;;;;;6097017;23;20439;-78
2022/09/16 08:37:28;;;;;;;1.93;1.57;;;16.90;99.90;;;;;;6097229;23;20440;-77
2022/09/16 08:40:03;;;;;;;3.20;2.40;;;17.00;99.90;;;;;;6095891;23;20805;-76
2022/09/16 08:42:53;;;;;;;3.17;1.70;;;17.00;99.90;;;;;;6096250;23;20444;-76
2022/09/16 08:48:38;;;;;;;1.70;1.40;;;17.00;99.90;;;;;;6038388;23;20469;-75
2022/09/16 08:51:09;;;;;;;3.57;2.47;;;17.10;99.90;;;;;;6096453;23;20443;-76
2022/09/16 08:53:41;;;;;;;4.40;1.90;;;17.10;99.90;;;;;;6097127;23;20804;-76
2022/09/16 08:56:14;;;;;;;2.67;1.87;;;17.10;99.90;;;;;;6096410;23;20753;-75
2022/09/16 08:58:44;;;;;;;2.70;1.63;;;17.10;99.90;;;;;;6096439;23;20941;-76
2022/09/16 09:01:21;;;;;;;3.50;1.33;;;17.10;99.90;;;;;;6095995;23;20470;-76
2022/09/16 09:03:49;;;;;;;4.50;2.53;;;17.00;99.90;;;;;;6097038;23;20474;-79
2022/09/16 09:06:35;;;;;;;2.13;1.57;;;17.00;99.90;;;;;;6096579;23;20436;-76
2022/09/16 09:09:21;;;;;;;5.10;2.00;;;17.10;99.90;;;;;;6096711;23;20463;-78
2022/09/16 09:11:55;;;;;;;2.90;1.37;;;17.20;99.90;;;;;;6096262;23;20437;-78
2022/09/16 09:14:33;;;;;;;5.30;1.90;;;17.30;99.90;;;;;;6096893;23;20442;-78
2022/09/16 09:17:06;;;;;;;3.80;1.77;;;17.40;99.90;;;;;;6096781;23;20447;-78
2022/09/16 09:19:46;;;;;;;4.43;1.63;;;17.50;99.90;;;;;;6097116;23;20444;-79
2022/09/16 09:22:25;;;;;;;2.87;1.67;;;17.60;99.90;;;;;;6096581;23;20428;-77
2022/09/16 09:25:27;;;;;;;5.37;2.40;;;17.70;99.90;;;;;;6101861;23;20447;-76
2022/09/16 09:28:16;;;;;;;2.53;1.70;;;17.70;99.90;;;;;;6097317;23;20501;-76
2022/09/16 09:30:52;;;;;;;3.27;1.40;;;17.80;99.90;;;;;;6095978;23;20981;-77
2022/09/16 09:33:30;;;;;;;3.73;2.03;;;17.90;99.90;;;;;;6097050;23;20447;-76
2022/09/16 09:36:16;;;;;;;3.77;1.57;;;18.00;99.90;;;;;;6096517;23;20431;-78
2022/09/16 09:39:10;;;;;;;5.10;2.20;;;18.00;99.90;;;;;;6095268;23;20925;-77
2022/09/16 09:42:20;;;;;;;1.70;1.60;;;18.10;99.90;;;;;;6096279;23;20447;-76
2022/09/16 09:44:54;;;;;;;5.90;1.43;;;18.30;99.90;;;;;;6082110;23;20440;-76
2022/09/16 09:47:26;;;;;;;4.40;1.70;;;18.30;99.90;;;;;;6095216;23;20432;-76
2022/09/16 09:49:57;;;;;;;4.60;1.50;;;18.40;99.90;;;;;;6097322;23;20469;-75
2022/09/16 09:52:34;;;;;;;4.80;3.47;;;18.40;99.90;;;;;;6097515;23;20453;-75
2022/09/16 09:55:17;;;;;;;6.63;3.37;;;18.40;99.80;;;;;;6098481;23;20505;-77
2022/09/16 09:58:17;;;;;;;4.00;1.60;;;18.50;99.40;;;;;;6097970;23;20429;-78
2022/09/16 10:00:56;;;;;;;4.90;1.50;;;18.50;98.50;;;;;;6092597;23;20433;-78
2022/09/16 10:03:28;;;;;;;2.20;1.50;;;18.40;97.80;;;;;;6085134;23;20438;-78
2022/09/16 10:06:08;;;;;;;4.20;1.67;;;18.40;97.50;;;;;;6099050;23;20415;-78
2022/09/16 10:08:46;;;;;;;3.00;2.53;;;18.40;96.70;;;;;;6084396;23;20473;-77
2022/09/16 10:11:23;;;;;;;3.37;1.47;;;18.40;96.30;;;;;;6086008;23;20436;-78
2022/09/16 10:13:55;;;;;;;6.30;1.97;;;18.40;96.10;;;;;;6098104;23;20462;-78
2022/09/16 10:16:38;;;;;;;3.30;1.43;;;18.50;96.30;;;;;;6087431;23;20446;-78
2022/09/16 10:19:16;;;;;;;2.63;1.50;;;18.50;96.30;;;;;;6098432;23;20470;-77
2022/09/16 10:21:46;;;;;;;1.90;1.40;;;18.60;96.20;;;;;;6097614;23;20891;-76
2022/09/16 10:24:33;;;;;;;6.60;1.70;;;18.60;96.10;;;;;;6098354;23;20443;-76
2022/09/16 10:27:02;;;;;;;4.87;1.43;;;18.60;95.80;;;;;;6098252;23;20443;-77
2022/09/16 10:30:06;;;;;;;6.33;1.63;;;18.60;95.00;;;;;;6098323;23;20914;-76
2022/09/16 10:32:45;;;;;;;3.27;1.40;;;18.60;95.10;;;;;;6099120;23;20435;-78
2022/09/16 10:35:23;;;;;;;3.80;1.90;;;18.60;95.00;;;;;;6097124;23;20442;-78
2022/09/16 10:37:53;;;;;;;3.80;1.37;;;18.60;95.00;;;;;;6083092;23;20743;-78
2022/09/16 10:40:38;;;;;;;3.93;1.30;;;18.60;95.00;;;;;;6096842;23;20919;-78
2022/09/16 10:43:14;;;;;;;3.17;1.80;;;18.60;94.90;;;;;;6085803;23;20934;-78
2022/09/16 10:45:46;;;;;;;3.50;1.80;;;18.60;94.50;;;;;;6097916;23;20702;-78
2022/09/16 10:48:17;;;;;;;5.23;2.80;;;18.60;93.70;;;;;;6098442;23;20718;-78
2022/09/16 10:51:21;;;;;;;3.97;2.80;;;18.60;93.50;;;;;;6097906;23;20435;-77
2022/09/16 10:53:53;;;;;;;5.47;2.37;;;18.60;93.60;;;;;;6097848;23;20497;-76
2022/09/16 10:56:24;;;;;;;8.70;1.93;;;18.70;93.70;;;;;;6098243;23;20432;-78
2022/09/16 10:59:09;;;;;;;2.20;1.80;;;18.70;94.00;;;;;;6069326;23;20506;-78
2022/09/16 11:01:44;;;;;;;2.20;2.00;;;18.80;94.10;;;;;;6094085;23;20439;-78
2022/09/16 11:04:40;;;;;;;4.83;1.57;;;18.80;94.20;;;;;;6082558;23;20435;-77
2022/09/16 11:07:22;;;;;;;3.67;1.53;;;18.90;93.20;;;;;;6082060;23;20446;-78
2022/09/16 11:09:59;;;;;;;3.43;2.00;;;19.00;92.90;;;;;;6097045;23;20463;-78
2022/09/16 11:12:45;;;;;;;4.53;1.97;;;19.10;92.90;;;;;;6097890;23;20439;-78
2022/09/16 11:15:40;;;;;;;2.50;1.57;;;19.10;92.60;;;;;;6096897;23;20491;-77
2022/09/16 11:18:21;;;;;;;4.60;1.80;;;19.10;91.80;;;;;;6068826;23;20768;-77
2022/09/16 11:21:13;;;;;;;4.47;1.80;;;19.10;91.60;;;;;;6097521;23;20428;-76
2022/09/16 11:24:01;;;;;;;3.10;1.43;;;19.20;91.80;;;;;;6098028;23;20436;-76
2022/09/16 11:26:36;;;;;;;1.60;1.20;;;19.20;91.80;;;;;;6097648;23;20462;-76
2022/09/16 11:29:20;;;;;;;1.87;1.00;;;19.20;91.90;;;;;;6097159;23;20434;-75
2022/09/16 11:31:59;;;;;;;3.63;1.43;;;19.20;92.00;;;;;;6097319;23;20443;-78
2022/09/16 11:34:40;;;;;;;2.90;1.33;;;19.20;92.00;;;;;;6081886;23;20510;-76
2022/09/16 11:37:17;;;;;;;2.30;1.10;;;19.30;91.80;;;;;;6097213;23;20459;-76
2022/09/16 11:40:00;;;;;;;2.30;1.37;;;19.30;91.60;;;;;;6095718;23;20446;-78
2022/09/16 11:42:34;;;;;;;2.20;1.33;;;19.30;91.40;;;;;;6097908;23;20732;-78
2022/09/16 11:45:19;;;;;;;2.20;1.10;;;19.20;90.60;;;;;;6097430;23;20448;-79
2022/09/16 11:48:02;;;;;;;3.47;1.30;;;19.20;90.50;;;;;;6076280;23;20534;-79
2022/09/16 11:50:41;;;;;;;4.03;1.43;;;19.20;90.60;;;;;;6096780;23;20926;-78
2022/09/16 11:53:37;;;;;;;2.33;1.00;;;19.20;90.60;;;;;;6097487;23;20431;-78
2022/09/16 11:56:12;;;;;;;1.17;1.07;;;19.30;90.50;;;;;;6097920;23;20783;-78
2022/09/16 11:58:45;;;;;;;3.17;1.30;;;19.30;90.40;;;;;;6097538;23;20474;-78
2022/09/16 12:01:39;;;;;;;5.60;1.33;;;19.20;90.10;;;;;;6096232;23;20983;-77
2022/09/16 12:04:13;;;;;;;2.00;1.53;;;19.20;90.20;;;;;;6081506;23;20443;-75
2022/09/16 12:06:49;;;;;;;3.07;1.60;;;19.30;90.20;;;;;;6096311;23;20435;-76
2022/09/16 12:09:23;;;;;;;1.87;1.30;;;19.30;90.30;;;;;;6096732;23;20431;-77
2022/09/16 12:12:03;;;;;;;1.30;0.90;;;19.30;90.20;;;;;;6097177;23;20502;-76
2022/09/16 12:14:36;;;;;;;1.60;1.13;;;19.30;90.30;;;;;;6081217;23;20424;-76
2022/09/16 12:17:13;;;;;;;1.80;1.20;;;19.20;90.60;;;;;;6097200;23;20470;-75
2022/09/16 12:19:47;;;;;;;3.50;1.20;;;19.30;90.60;;;;;;6082170;23;20427;-75
2022/09/16 12:22:20;;;;;;;1.13;1.00;;;19.20;90.40;;;;;;6096358;23;21205;-78
2022/09/16 12:24:51;;;;;;;3.43;1.40;;;19.30;90.40;;;;;;6095539;23;20435;-79
2022/09/16 12:27:32;;;;;;;3.13;1.47;;;19.30;90.40;;;;;;6095808;23;20450;-76
2022/09/16 12:30:03;;;;;;;3.53;1.17;;;19.30;90.30;;;;;;6096701;23;20459;-76
2022/09/16 12:32:42;;;;;;;2.77;1.53;;;19.20;88.90;;;;;;6095996;23;20451;-77
2022/09/16 12:35:14;;;;;;;1.90;1.10;;;19.20;88.80;;;;;;6096298;23;20502;-78
2022/09/16 12:37:47;;;;;;;3.20;1.40;;;19.20;88.10;;;;;;6096492;23;20427;-76
2022/09/16 12:40:18;;;;;;;10.53;2.30;;;19.20;87.40;;;;;;6096767;23;20450;-76
2022/09/16 12:43:39;;;;;;;3.40;2.00;;;19.20;87.10;;;;;;6096454;23;20518;-77
2022/09/16 12:46:33;;;;;;;3.50;2.07;;;19.20;88.10;;;;;;6096136;23;20508;-75
2022/09/16 12:49:36;;;;;;;4.57;2.97;;;19.30;87.00;;;;;;6095567;23;20446;-76
2022/09/16 12:52:50;;;;;;;2.93;2.67;;;19.30;87.00;;;;;;6093635;23;20904;-78
2022/09/16 12:55:43;;;;;;;3.33;2.43;;;19.20;86.40;;;;;;6061189;23;20455;-75
2022/09/16 12:58:29;;;;;;;4.70;2.37;;;19.30;86.00;;;;;;6093723;23;20427;-78
2022/09/16 13:01:14;;;;;;;2.50;1.60;;;19.20;85.50;;;;;;6096382;23;20528;-79
2022/09/16 13:03:45;;;;;;;2.20;1.63;;;19.30;86.00;;;;;;6096873;23;20484;-79
2022/09/16 13:06:22;;;;;;;3.20;2.17;;;19.30;85.20;;;;;;6096907;23;20479;-78
2022/09/16 13:08:50;;;;;;;2.13;1.73;;;19.30;84.80;;;;;;6095486;23;20439;-79
2022/09/16 13:11:21;;;;;;;3.60;1.90;;;19.30;84.20;;;;;;6096785;23;20927;-77
2022/09/16 13:13:54;;;;;;;2.97;1.50;;;19.30;84.00;;;;;;6096901;23;20443;-76
2022/09/16 13:16:50;;;;;;;3.63;2.57;;;19.30;83.80;;;;;;6095084;23;20438;-78
2022/09/16 13:19:33;;;;;;;4.50;3.20;;;19.30;83.60;;;;;;6096592;23;20514;-79
2022/09/16 13:22:14;;;;;;;4.50;2.33;;;19.20;82.90;;;;;;6093865;23;20740;-78
2022/09/16 13:24:46;;;;;;;9.13;6.10;;;19.20;82.70;;;;;;6097184;23;20761;-78
2022/09/16 13:27:29;;;;;;;4.50;3.00;;;19.20;82.60;;;;;;6097667;23;20450;-78
2022/09/16 13:30:37;;;;;;;4.97;4.20;;;19.30;82.50;;;;;;6097187;23;20439;-79
2022/09/16 13:33:24;;;;;;;2.30;2.10;;;19.30;82.70;;;;;;6098881;23;20435;-76
2022/09/16 13:36:13;;;;;;;2.77;2.33;;;19.30;82.60;;;;;;6099095;23;20500;-76